createdAt,value
2018-03-15T00:00:54.780Z,3.10
2018-03-15T00:03:28.729Z,3.00
2018-03-15T00:05:56.425Z,3.20
2018-03-15T00:08:24.037Z,2.80
2018-03-15T00:10:51.865Z,2.70
2018-03-15T00:13:20.273Z,3.20
2018-03-15T00:15:48.692Z,3.10
2018-03-15T00:18:16.355Z,3.00
2018-03-15T00:20:44.017Z,2.90
2018-03-15T00:23:11.678Z,2.80
2018-03-15T00:25:39.294Z,3.30
2018-03-15T00:28:08.273Z,2.70
2018-03-15T00:30:35.942Z,3.10
2018-03-15T00:33:03.552Z,3.10
2018-03-15T00:35:31.212Z,3.10
2018-03-15T00:37:59.424Z,2.90
2018-03-15T00:40:27.082Z,3.10
2018-03-15T00:42:54.738Z,2.90
2018-03-15T00:45:22.364Z,3.10
2018-03-15T00:47:50.653Z,3.00
2018-03-15T00:50:18.317Z,2.70
2018-03-15T00:52:45.959Z,3.00
2018-03-15T00:55:13.623Z,3.20
2018-03-15T00:57:41.241Z,2.90
2018-03-15T01:00:09.981Z,3.00
2018-03-15T01:02:37.660Z,3.00
2018-03-15T01:05:05.300Z,3.00
2018-03-15T01:07:32.936Z,2.90
2018-03-15T01:10:00.612Z,2.90
2018-03-15T01:12:28.277Z,2.80
2018-03-15T01:14:55.892Z,2.70
2018-03-15T01:17:23.544Z,3.00
2018-03-15T01:19:51.217Z,2.90
2018-03-15T01:22:18.874Z,3.00
2018-03-15T01:24:46.675Z,2.70
2018-03-15T01:27:14.289Z,2.90
2018-03-15T01:29:41.948Z,2.90
2018-03-15T01:32:09.563Z,3.00
2018-03-15T01:34:37.212Z,2.70
2018-03-15T01:37:04.877Z,2.90
2018-03-15T01:39:32.497Z,3.00
2018-03-15T01:42:00.107Z,2.40
2018-03-15T01:44:27.762Z,2.90
2018-03-15T01:46:55.401Z,2.90
2018-03-15T01:49:23.737Z,2.80
2018-03-15T01:51:52.375Z,2.60
2018-03-15T01:54:19.984Z,2.50
2018-03-15T01:56:47.644Z,2.50
2018-03-15T01:59:15.300Z,2.50
2018-03-15T02:01:43.717Z,2.50
2018-03-15T02:04:11.332Z,2.30
2018-03-15T02:06:38.993Z,2.50
2018-03-15T02:09:06.618Z,2.50
2018-03-15T02:11:34.273Z,2.50
2018-03-15T02:14:01.934Z,2.50
2018-03-15T02:16:29.615Z,2.50
2018-03-15T02:18:57.264Z,2.50
2018-03-15T02:21:24.877Z,2.50
2018-03-15T02:23:52.525Z,2.50
2018-03-15T02:26:20.901Z,2.50
2018-03-15T02:28:49.333Z,2.70
2018-03-15T02:31:17.102Z,2.50
2018-03-15T02:33:44.711Z,2.60
2018-03-15T02:36:12.361Z,2.60
2018-03-15T02:38:40.789Z,2.60
2018-03-15T02:41:08.444Z,2.40
2018-03-15T02:43:36.061Z,2.30
2018-03-15T02:46:03.725Z,2.40
2018-03-15T02:48:32.097Z,1.80
2018-03-15T02:51:00.524Z,2.10
2018-03-15T02:53:28.136Z,2.10
2018-03-15T02:55:55.749Z,2.10
2018-03-15T02:58:23.812Z,2.10
2018-03-15T03:00:51.580Z,1.70
2018-03-15T03:03:19.230Z,1.50
2018-03-15T03:05:46.837Z,2.10
2018-03-15T03:08:15.242Z,1.70
2018-03-15T03:10:42.904Z,1.80
2018-03-15T03:13:10.557Z,1.60
2018-03-15T03:15:38.165Z,1.80
2018-03-15T03:18:06.612Z,1.80
2018-03-15T03:20:34.594Z,1.90
2018-03-15T03:23:02.200Z,2.10
2018-03-15T03:25:30.612Z,1.80
2018-03-15T03:27:58.217Z,1.90
2018-03-15T03:30:25.871Z,1.80
2018-03-15T03:32:53.529Z,1.60
2018-03-15T03:35:21.184Z,1.80
2018-03-15T03:37:48.842Z,1.60
2018-03-15T03:40:16.453Z,1.40
2018-03-15T03:42:44.105Z,2.00
2018-03-15T03:45:12.535Z,1.80
2018-03-15T03:47:40.195Z,1.90
2018-03-15T03:50:07.846Z,2.10
2018-03-15T03:52:35.499Z,1.70
2018-03-15T03:55:03.126Z,1.70
2018-03-15T03:57:30.772Z,1.70
2018-03-15T03:59:59.192Z,1.70
2018-03-15T04:02:26.862Z,1.70
2018-03-15T04:04:54.513Z,1.70
2018-03-15T04:07:22.161Z,2.10
2018-03-15T04:09:49.829Z,2.10
2018-03-15T04:12:17.480Z,1.70
2018-03-15T04:14:45.127Z,2.10
2018-03-15T04:17:14.467Z,2.10
2018-03-15T04:19:42.443Z,2.10
2018-03-15T04:22:10.841Z,2.20
2018-03-15T04:24:38.449Z,2.30
2018-03-15T04:27:06.113Z,1.70
2018-03-15T04:29:33.772Z,1.90
2018-03-15T04:32:01.384Z,2.30
2018-03-15T04:34:29.064Z,2.30
2018-03-15T04:36:57.442Z,2.30
2018-03-15T04:39:25.105Z,2.10
2018-03-15T04:41:53.520Z,2.40
2018-03-15T04:44:21.128Z,2.50
2018-03-15T04:46:48.779Z,2.40
2018-03-15T04:49:16.392Z,2.50
2018-03-15T04:51:44.048Z,2.40
2018-03-15T04:54:11.740Z,2.30
2018-03-15T04:56:39.396Z,2.60
2018-03-15T04:59:07.383Z,2.50
2018-03-15T05:01:35.041Z,2.60
2018-03-15T05:04:02.648Z,2.60
2018-03-15T05:06:30.305Z,2.60
2018-03-15T05:08:57.972Z,2.60
2018-03-15T05:11:25.630Z,2.60
2018-03-15T05:13:53.447Z,2.70
2018-03-15T05:16:21.093Z,2.40
2018-03-15T05:18:48.969Z,2.60
2018-03-15T05:21:16.620Z,2.60
2018-03-15T05:23:44.241Z,2.60
2018-03-15T05:26:12.056Z,2.60
2018-03-15T05:28:39.720Z,2.60
2018-03-15T05:31:07.373Z,2.30
2018-03-15T05:33:35.034Z,2.50
2018-03-15T05:36:02.686Z,2.70
2018-03-15T05:38:30.745Z,2.50
2018-03-15T05:40:58.590Z,2.70
2018-03-15T05:43:26.205Z,2.70
2018-03-15T05:45:53.830Z,2.60
2018-03-15T05:48:21.497Z,2.90
2018-03-15T05:50:49.301Z,2.60
2018-03-15T05:53:17.738Z,2.70
2018-03-15T05:55:45.354Z,2.80
2018-03-15T05:58:14.834Z,2.90
2018-03-15T06:00:42.568Z,2.80
2018-03-15T06:03:10.227Z,2.90
2018-03-15T06:05:37.837Z,2.70
2018-03-15T06:08:05.485Z,2.90
2018-03-15T06:10:34.228Z,2.70
2018-03-15T06:13:01.892Z,2.80
2018-03-15T06:15:29.502Z,2.80
2018-03-15T06:17:57.503Z,2.80
2018-03-15T06:20:25.133Z,2.80
2018-03-15T06:22:52.796Z,2.80
2018-03-15T06:25:20.441Z,2.90
2018-03-15T06:27:48.820Z,2.90
2018-03-15T06:30:17.237Z,2.80
2018-03-15T06:32:44.844Z,2.70
2018-03-15T06:35:12.497Z,2.80
2018-03-15T06:37:41.687Z,2.90
2018-03-15T06:40:09.302Z,2.80
2018-03-15T06:42:36.970Z,2.70
2018-03-15T06:45:04.592Z,3.00
2018-03-15T06:47:32.264Z,2.80
2018-03-15T06:49:59.968Z,2.90
2018-03-15T06:52:27.630Z,2.90
2018-03-15T06:54:55.278Z,2.90
2018-03-15T06:57:23.253Z,2.80
2018-03-15T06:59:50.936Z,2.80
2018-03-15T07:02:19.888Z,2.80
2018-03-15T07:04:48.846Z,2.70
2018-03-15T07:07:16.465Z,2.90
2018-03-15T07:09:44.124Z,3.20
2018-03-15T07:12:12.429Z,2.90
2018-03-15T07:14:40.089Z,2.90
2018-03-15T07:17:08.477Z,3.10
2018-03-15T07:19:36.137Z,3.00
2018-03-15T07:22:05.967Z,3.20
2018-03-15T07:24:33.631Z,2.90
2018-03-15T07:27:02.069Z,3.10
2018-03-15T07:29:29.737Z,3.20
2018-03-15T07:31:57.469Z,3.10
2018-03-15T07:34:27.244Z,3.20
2018-03-15T07:36:54.985Z,3.00
2018-03-15T07:39:22.717Z,2.90
2018-03-15T07:41:50.314Z,3.10
2018-03-15T07:44:18.698Z,3.20
2018-03-15T07:46:46.356Z,2.90
2018-03-15T07:49:13.968Z,3.20
2018-03-15T07:51:41.635Z,3.10
2018-03-15T07:54:10.867Z,3.20
2018-03-15T07:56:38.693Z,3.10
2018-03-15T07:59:06.461Z,3.20
2018-03-15T08:01:34.226Z,3.20
2018-03-15T08:04:02.463Z,3.40
2018-03-15T08:06:30.142Z,3.50
2018-03-15T08:08:57.749Z,3.20
2018-03-15T08:11:25.396Z,3.40
2018-03-15T08:13:53.794Z,3.40
2018-03-15T08:16:21.502Z,3.20
2018-03-15T08:18:49.173Z,3.30
2018-03-15T08:21:16.782Z,3.50
2018-03-15T08:23:44.698Z,3.40
2018-03-15T08:26:12.321Z,3.40
2018-03-15T08:28:40.008Z,3.20
2018-03-15T08:31:07.622Z,3.40
2018-03-15T08:33:35.280Z,3.50
2018-03-15T08:36:02.901Z,3.40
2018-03-15T08:38:30.570Z,3.40
2018-03-15T08:40:58.190Z,3.00
2018-03-15T08:43:25.805Z,3.00
2018-03-15T08:45:53.502Z,3.30
2018-03-15T08:48:21.126Z,2.90
2018-03-15T08:50:49.558Z,3.00
2018-03-15T08:53:17.246Z,3.30
2018-03-15T08:55:44.913Z,3.00
2018-03-15T08:58:12.586Z,3.00
2018-03-15T09:00:40.261Z,3.50
2018-03-15T09:03:08.660Z,3.50
2018-03-15T09:05:36.321Z,3.20
2018-03-15T09:08:03.976Z,3.50
2018-03-15T09:10:31.650Z,3.30
2018-03-15T09:12:59.539Z,3.70
2018-03-15T09:15:27.157Z,3.70
2018-03-15T09:17:54.821Z,3.80
2018-03-15T09:20:22.488Z,4.20
2018-03-15T09:22:50.466Z,3.60
2018-03-15T09:25:18.090Z,3.60
2018-03-15T09:27:45.709Z,3.60
2018-03-15T09:30:13.370Z,3.60
2018-03-15T09:32:41.014Z,3.70
2018-03-15T09:35:08.705Z,3.70
2018-03-15T09:37:36.373Z,3.70
2018-03-15T09:40:04.769Z,3.80
2018-03-15T09:42:32.583Z,3.80
2018-03-15T09:45:00.238Z,3.70
2018-03-15T09:47:27.921Z,3.70
2018-03-15T09:49:55.584Z,3.80
2018-03-15T09:52:23.230Z,3.70
2018-03-15T09:54:50.907Z,3.80
2018-03-15T09:57:19.206Z,3.70
2018-03-15T09:59:46.887Z,3.70
2018-03-15T10:02:14.589Z,3.60
2018-03-15T10:04:42.224Z,3.70
2018-03-15T10:07:09.906Z,3.70
2018-03-15T10:09:37.611Z,3.70
2018-03-15T10:12:05.263Z,3.70
2018-03-15T10:14:32.951Z,3.70
2018-03-15T10:17:00.573Z,3.80
2018-03-15T10:19:29.030Z,3.80
2018-03-15T10:21:56.669Z,3.60
2018-03-15T10:24:24.337Z,3.60
2018-03-15T10:26:52.017Z,3.80
2018-03-15T10:29:20.673Z,3.50
2018-03-15T10:31:48.301Z,3.50
2018-03-15T10:34:16.218Z,3.70
2018-03-15T10:36:43.908Z,3.70
2018-03-15T10:39:11.608Z,3.70
2018-03-15T10:41:39.248Z,3.80
2018-03-15T10:44:06.913Z,3.60
2018-03-15T10:46:34.597Z,3.80
2018-03-15T10:49:02.253Z,3.70
2018-03-15T10:51:29.889Z,3.60
2018-03-15T10:53:57.576Z,3.60
2018-03-15T10:56:25.387Z,3.90
2018-03-15T10:58:54.767Z,3.60
2018-03-15T11:01:22.491Z,3.70
2018-03-15T11:03:50.200Z,3.60
2018-03-15T11:06:24.367Z,3.60
2018-03-15T11:08:58.305Z,3.70
2018-03-15T11:11:25.988Z,3.70
2018-03-15T11:13:55.145Z,3.60
2018-03-15T11:16:23.016Z,3.60
2018-03-15T11:18:50.672Z,3.70
2018-03-15T11:21:18.348Z,3.70
2018-03-15T11:23:46.295Z,3.30
2018-03-15T11:26:13.861Z,3.50
2018-03-15T11:28:41.505Z,3.50
2018-03-15T11:31:09.201Z,2.70
2018-03-15T11:33:38.214Z,3.40
2018-03-15T11:36:06.627Z,3.40
2018-03-15T11:38:34.333Z,3.30
2018-03-15T11:41:03.270Z,3.40
2018-03-15T11:43:30.997Z,3.30
2018-03-15T11:45:59.478Z,3.30
2018-03-15T11:48:27.933Z,3.50
2018-03-15T11:50:56.180Z,3.20
2018-03-15T11:53:25.430Z,3.30
2018-03-15T11:55:53.853Z,3.70
2018-03-15T11:58:21.485Z,3.50
2018-03-15T12:00:49.402Z,3.70
2018-03-15T12:03:17.279Z,3.70
2018-03-15T12:05:45.645Z,3.70
2018-03-15T12:08:13.341Z,3.20
2018-03-15T12:10:40.982Z,3.60
2018-03-15T12:13:08.629Z,3.40
2018-03-15T12:15:36.324Z,3.60
2018-03-15T12:18:03.973Z,3.80
2018-03-15T12:20:31.631Z,3.60
2018-03-15T12:22:59.300Z,4.10
2018-03-15T12:25:27.051Z,3.80
2018-03-15T12:27:54.673Z,3.60
2018-03-15T12:30:22.336Z,3.50
2018-03-15T12:32:49.958Z,3.70
2018-03-15T12:35:18.205Z,3.70
2018-03-15T12:37:46.078Z,3.60
2018-03-15T12:40:13.746Z,3.60
2018-03-15T12:42:41.387Z,3.30
2018-03-15T12:45:09.372Z,3.40
2018-03-15T12:47:36.993Z,3.50
2018-03-15T12:50:04.675Z,3.60
2018-03-15T12:52:32.346Z,3.50
2018-03-15T12:54:59.973Z,3.20
2018-03-15T12:57:27.685Z,3.40
2018-03-15T12:59:55.288Z,3.50
2018-03-15T13:02:22.955Z,3.50
2018-03-15T13:04:50.585Z,3.40
2018-03-15T13:07:19.814Z,2.90
2018-03-15T13:09:47.430Z,3.20
2018-03-15T13:12:15.111Z,2.90
2018-03-15T13:14:43.495Z,3.40
2018-03-15T13:17:11.221Z,3.30
2018-03-15T13:19:38.886Z,3.20
2018-03-15T13:22:06.815Z,3.10
2018-03-15T13:24:34.442Z,3.40
2018-03-15T13:27:02.061Z,3.10
2018-03-15T13:29:30.040Z,3.40
2018-03-15T13:31:57.785Z,3.10
2018-03-15T13:34:25.479Z,3.40
2018-03-15T13:36:53.109Z,3.40
2018-03-15T13:39:21.009Z,3.70
2018-03-15T13:41:48.668Z,3.40
2018-03-15T13:44:16.347Z,3.10
2018-03-15T13:46:44.056Z,3.40
2018-03-15T13:49:11.737Z,3.40
2018-03-15T13:51:39.367Z,3.20
2018-03-15T13:54:07.435Z,3.40
2018-03-15T13:56:35.661Z,3.50
2018-03-15T13:59:04.153Z,3.40
2018-03-15T14:01:31.872Z,3.40
2018-03-15T14:03:59.484Z,3.60
2018-03-15T14:06:27.142Z,3.60
2018-03-15T14:08:54.820Z,3.60
2018-03-15T14:11:22.464Z,3.50
2018-03-15T14:13:50.141Z,3.60
2018-03-15T14:16:18.200Z,3.30
2018-03-15T14:18:45.821Z,3.70
2018-03-15T14:21:13.473Z,3.60
2018-03-15T14:23:41.860Z,3.60
2018-03-15T14:26:10.255Z,3.50
2018-03-15T14:28:37.929Z,3.50
2018-03-15T14:31:05.593Z,3.70
2018-03-15T14:33:33.253Z,3.40
2018-03-15T14:36:00.873Z,3.70
2018-03-15T14:38:29.321Z,3.60
2018-03-15T14:40:56.971Z,3.40
2018-03-15T14:43:24.598Z,3.50
2018-03-15T14:45:52.274Z,3.60
2018-03-15T14:48:19.941Z,3.60
2018-03-15T14:50:47.576Z,3.60
2018-03-15T14:53:15.274Z,3.70
2018-03-15T14:55:42.893Z,3.70
2018-03-15T14:58:10.713Z,3.70
2018-03-15T15:00:38.334Z,3.60
2018-03-15T15:03:05.999Z,3.60
2018-03-15T15:05:33.630Z,4.00
2018-03-15T15:08:01.912Z,3.50
2018-03-15T15:10:29.572Z,3.40
2018-03-15T15:12:57.953Z,3.60
2018-03-15T15:15:25.639Z,3.60
2018-03-15T15:17:53.261Z,4.00
2018-03-15T15:20:20.928Z,4.00
2018-03-15T15:22:49.361Z,4.00
2018-03-15T15:25:17.045Z,3.60
2018-03-15T15:27:44.666Z,4.00
2018-03-15T15:30:12.553Z,3.70
2018-03-15T15:32:40.209Z,3.60
2018-03-15T15:35:07.869Z,3.70
2018-03-15T15:37:35.528Z,3.70
2018-03-15T15:40:03.298Z,3.80
2018-03-15T15:42:30.964Z,3.60
2018-03-15T15:45:00.088Z,3.50
2018-03-15T15:47:28.476Z,3.40
2018-03-15T15:49:56.129Z,3.50
2018-03-15T15:52:23.756Z,3.70
2018-03-15T15:54:52.181Z,3.60
2018-03-15T15:57:19.810Z,3.50
2018-03-15T15:59:48.471Z,3.40
2018-03-15T16:02:16.137Z,3.40
2018-03-15T16:04:44.347Z,3.60
2018-03-15T16:07:12.014Z,3.60
2018-03-15T16:09:39.637Z,3.30
2018-03-15T16:12:08.077Z,3.40
2018-03-15T16:14:35.717Z,3.50
2018-03-15T16:17:03.372Z,3.30
2018-03-15T16:19:31.263Z,3.30
2018-03-15T16:21:58.930Z,3.40
2018-03-15T16:24:26.593Z,3.40
2018-03-15T16:26:54.295Z,3.30
2018-03-15T16:29:22.736Z,3.50
2018-03-15T16:31:50.349Z,3.20
2018-03-15T16:34:18.018Z,3.40
2018-03-15T16:36:45.687Z,3.40
2018-03-15T16:39:13.311Z,3.40
2018-03-15T16:41:40.981Z,3.40
2018-03-15T16:44:09.352Z,3.40
2018-03-15T16:46:37.768Z,3.10
2018-03-15T16:49:05.963Z,3.20
2018-03-15T16:51:34.149Z,3.40
2018-03-15T16:54:02.473Z,3.40
2018-03-15T16:56:30.126Z,3.40
2018-03-15T16:58:57.789Z,3.40
2018-03-15T17:01:26.178Z,3.40
2018-03-15T17:03:53.832Z,3.20
2018-03-15T17:06:21.452Z,3.20
2018-03-15T17:08:49.109Z,3.20
2018-03-15T17:11:16.739Z,3.10
2018-03-15T17:13:44.405Z,3.40
2018-03-15T17:16:12.066Z,3.40
2018-03-15T17:18:39.717Z,3.40
2018-03-15T17:21:07.370Z,3.40
2018-03-15T17:23:34.981Z,3.40
2018-03-15T17:26:02.635Z,3.40
2018-03-15T17:28:30.373Z,3.40
2018-03-15T17:30:58.048Z,3.40
2018-03-15T17:33:26.278Z,3.40
2018-03-15T17:35:53.885Z,3.40
2018-03-15T17:38:21.534Z,3.40
2018-03-15T17:40:49.141Z,3.40
2018-03-15T17:43:17.616Z,3.40
2018-03-15T17:45:45.224Z,3.20
2018-03-15T17:48:12.830Z,3.10
2018-03-15T17:50:41.049Z,3.30
2018-03-15T17:53:08.662Z,3.40
2018-03-15T17:55:36.379Z,3.20
2018-03-15T17:58:04.065Z,3.40
2018-03-15T18:00:31.699Z,3.40
2018-03-15T18:02:59.360Z,3.30
2018-03-15T18:05:27.341Z,3.30
2018-03-15T18:07:54.967Z,3.40
2018-03-15T18:10:22.626Z,3.40
2018-03-15T18:12:50.292Z,3.50
2018-03-15T18:15:18.096Z,2.90
2018-03-15T18:17:45.993Z,3.10
2018-03-15T18:20:14.593Z,3.40
2018-03-15T18:22:42.249Z,3.40
2018-03-15T18:25:09.852Z,3.20
2018-03-15T18:27:37.710Z,3.40
2018-03-15T18:30:05.362Z,3.20
2018-03-15T18:32:32.974Z,3.40
2018-03-15T18:35:00.623Z,3.40
2018-03-15T18:37:28.565Z,3.40
2018-03-15T18:39:56.225Z,3.20
2018-03-15T18:42:23.832Z,3.20
2018-03-15T18:44:51.488Z,3.40
2018-03-15T18:47:19.093Z,3.50
2018-03-15T18:49:46.750Z,3.30
2018-03-15T18:52:14.406Z,3.40
2018-03-15T18:54:43.125Z,3.40
2018-03-15T18:57:10.733Z,3.40
2018-03-15T18:59:38.381Z,3.30
2018-03-15T19:02:06.024Z,3.40
2018-03-15T19:04:34.453Z,3.40
2018-03-15T19:07:02.064Z,3.40
2018-03-15T19:09:30.488Z,3.10
2018-03-15T19:11:58.137Z,3.10
2018-03-15T19:14:25.741Z,3.20
2018-03-15T19:16:54.163Z,3.10
2018-03-15T19:19:21.821Z,2.70
2018-03-15T19:21:49.433Z,2.70
2018-03-15T19:24:17.230Z,2.80
2018-03-15T19:26:44.841Z,2.60
2018-03-15T19:29:12.507Z,2.50
2018-03-15T19:31:40.112Z,2.80
2018-03-15T19:34:07.723Z,2.90
2018-03-15T19:36:35.388Z,2.70
2018-03-15T19:39:03.032Z,2.40
2018-03-15T19:41:30.685Z,2.70
2018-03-15T19:43:58.285Z,2.40
2018-03-15T19:46:25.937Z,2.60
2018-03-15T19:48:53.550Z,2.60
2018-03-15T19:51:21.204Z,2.70
2018-03-15T19:53:48.812Z,2.20
2018-03-15T19:56:16.844Z,2.30
2018-03-15T19:58:44.459Z,2.80
2018-03-15T20:01:12.873Z,2.20
2018-03-15T20:03:40.553Z,2.20
2018-03-15T20:06:08.157Z,2.40
2018-03-15T20:08:35.821Z,2.50
2018-03-15T20:11:04.308Z,2.20
2018-03-15T20:13:31.922Z,2.20
2018-03-15T20:15:59.571Z,2.50
2018-03-15T20:18:27.186Z,2.50
2018-03-15T20:20:55.556Z,2.40
2018-03-15T20:23:29.597Z,2.30
2018-03-15T20:25:57.205Z,2.40
2018-03-15T20:28:30.400Z,2.20
2018-03-15T20:30:58.009Z,2.20
2018-03-15T20:33:31.746Z,2.10
2018-03-15T20:35:59.337Z,2.10
2018-03-15T20:38:27.750Z,2.10
2018-03-15T20:41:00.917Z,2.20
2018-03-15T20:43:28.570Z,2.40
2018-03-15T20:48:57.853Z,1.90
2018-03-15T20:51:25.457Z,1.90
2018-03-15T20:53:53.109Z,1.90
2018-03-15T20:56:20.757Z,1.90
2018-03-15T20:58:49.133Z,1.90
2018-03-15T21:01:16.781Z,2.10
2018-03-15T21:03:44.397Z,1.90
2018-03-15T21:06:12.056Z,1.90
2018-03-15T21:08:39.656Z,1.90
2018-03-15T21:11:08.041Z,2.10
2018-03-15T21:13:36.488Z,2.10
2018-03-15T21:16:04.096Z,1.80
2018-03-15T21:18:32.510Z,1.60
2018-03-15T21:21:00.117Z,1.30
2018-03-15T21:23:27.961Z,1.80
2018-03-15T21:25:55.585Z,1.60
2018-03-15T21:28:23.198Z,1.60
2018-03-15T21:30:50.944Z,1.60
2018-03-15T21:33:18.548Z,1.60
2018-03-15T21:35:46.251Z,1.70
2018-03-15T21:38:14.963Z,1.60
2018-03-15T21:40:43.404Z,1.60
2018-03-15T21:43:11.058Z,1.80
2018-03-15T21:45:38.669Z,1.60
2018-03-15T21:48:07.305Z,1.60
2018-03-15T21:50:35.642Z,1.60
2018-03-15T21:53:03.301Z,1.70
2018-03-15T21:55:31.668Z,1.60
2018-03-15T21:57:59.319Z,1.60
2018-03-15T22:00:26.968Z,1.60
2018-03-15T22:02:54.632Z,1.60
2018-03-15T22:05:22.280Z,1.70
2018-03-15T22:07:49.892Z,1.70
2018-03-15T22:10:17.547Z,1.60
2018-03-15T22:12:45.921Z,1.60
2018-03-15T22:15:14.337Z,1.80
2018-03-15T22:17:41.984Z,1.60
2018-03-15T22:20:09.589Z,1.60
2018-03-15T22:22:37.241Z,1.60
2018-03-15T22:25:04.900Z,1.80
2018-03-15T22:27:32.513Z,1.50
2018-03-15T22:30:00.789Z,1.60
2018-03-15T22:32:28.446Z,1.80
2018-03-15T22:34:56.137Z,1.60
2018-03-15T22:37:23.735Z,1.60
2018-03-15T22:39:51.398Z,1.60
2018-03-15T22:42:19.019Z,1.60
2018-03-15T22:44:46.865Z,1.60
2018-03-15T22:47:14.513Z,1.60
2018-03-15T22:49:42.142Z,1.60
2018-03-15T22:52:10.450Z,1.70
2018-03-15T22:54:38.053Z,1.90
2018-03-15T22:57:05.706Z,1.60
2018-03-15T22:59:33.373Z,1.90
2018-03-15T23:02:00.981Z,1.70
2018-03-15T23:04:29.576Z,1.60
2018-03-15T23:06:57.224Z,1.80
2018-03-15T23:09:24.893Z,1.70
2018-03-15T23:11:52.501Z,1.60
2018-03-15T23:14:20.148Z,1.60
2018-03-15T23:16:47.799Z,1.60
2018-03-15T23:19:15.427Z,1.60
2018-03-15T23:21:43.515Z,1.60
2018-03-15T23:24:12.104Z,1.60
2018-03-15T23:26:39.738Z,1.90
2018-03-15T23:29:07.350Z,1.60
2018-03-15T23:31:35.008Z,1.70
2018-03-15T23:34:02.617Z,1.80
2018-03-15T23:36:30.228Z,1.90
2018-03-15T23:38:57.876Z,1.70
2018-03-15T23:41:25.530Z,1.70
2018-03-15T23:43:53.199Z,1.70
2018-03-15T23:46:20.805Z,1.70
2018-03-15T23:48:48.412Z,1.80
2018-03-15T23:51:16.048Z,1.60
2018-03-15T23:53:43.666Z,1.60
2018-03-15T23:56:11.269Z,1.60
2018-03-15T23:58:38.930Z,1.90
